sensor_id;sensor_type;location;lat;lon;timestamp;P1;durP1;ratioP1;P2;durP2;ratioP2
34204;SDS011;20471;49.680;20.074;2023-07-31T00:00:56;8.60;;;3.10;;
34204;SDS011;20471;49.680;20.074;2023-07-31T00:03:28;5.80;;;2.80;;
34204;SDS011;20471;49.680;20.074;2023-07-31T00:05:55;4.30;;;2.90;;
34204;SDS011;20471;49.680;20.074;2023-07-31T00:08:23;9.30;;;3.70;;
34204;SDS011;20471;49.680;20.074;2023-07-31T00:10:51;5.10;;;2.90;;
34204;SDS011;20471;49.680;20.074;2023-07-31T00:13:20;5.20;;;2.80;;
34204;SDS011;20471;49.680;20.074;2023-07-31T00:15:47;6.60;;;3.00;;
34204;SDS011;20471;49.680;20.074;2023-07-31T00:18:15;3.10;;;2.80;;
34204;SDS011;20471;49.680;20.074;2023-07-31T00:20:43;5.70;;;2.80;;
34204;SDS011;20471;49.680;20.074;2023-07-31T00:23:10;5.10;;;3.30;;
34204;SDS011;20471;49.680;20.074;2023-07-31T00:25:39;4.40;;;2.90;;
34204;SDS011;20471;49.680;20.074;2023-07-31T00:28:06;5.80;;;3.40;;
34204;SDS011;20471;49.680;20.074;2023-07-31T00:30:34;9.30;;;3.10;;
34204;SDS011;20471;49.680;20.074;2023-07-31T00:33:02;8.70;;;3.00;;
34204;SDS011;20471;49.680;20.074;2023-07-31T00:35:29;9.10;;;3.40;;
34204;SDS011;20471;49.680;20.074;2023-07-31T00:37:58;5.10;;;3.10;;
34204;SDS011;20471;49.680;20.074;2023-07-31T00:40:26;5.30;;;3.20;;
34204;SDS011;20471;49.680;20.074;2023-07-31T00:42:53;4.20;;;2.70;;
34204;SDS011;20471;49.680;20.074;2023-07-31T00:45:21;2.60;;;2.40;;
34204;SDS011;20471;49.680;20.074;2023-07-31T00:47:53;5.60;;;3.10;;
34204;SDS011;20471;49.680;20.074;2023-07-31T00:50:22;3.90;;;3.30;;
34204;SDS011;20471;49.680;20.074;2023-07-31T00:52:51;6.40;;;3.80;;
34204;SDS011;20471;49.680;20.074;2023-07-31T00:55:19;7.50;;;3.20;;
34204;SDS011;20471;49.680;20.074;2023-07-31T00:57:48;4.90;;;3.40;;
34204;SDS011;20471;49.680;20.074;2023-07-31T01:00:16;4.60;;;3.00;;
34204;SDS011;20471;49.680;20.074;2023-07-31T01:02:44;4.30;;;2.60;;
34204;SDS011;20471;49.680;20.074;2023-07-31T01:05:12;3.90;;;3.10;;
34204;SDS011;20471;49.680;20.074;2023-07-31T01:10:25;5.70;;;3.30;;
34204;SDS011;20471;49.680;20.074;2023-07-31T01:12:57;5.90;;;3.10;;
34204;SDS011;20471;49.680;20.074;2023-07-31T01:15:25;3.70;;;2.70;;
34204;SDS011;20471;49.680;20.074;2023-07-31T01:17:53;5.40;;;3.10;;
34204;SDS011;20471;49.680;20.074;2023-07-31T01:20:21;7.30;;;2.60;;
34204;SDS011;20471;49.680;20.074;2023-07-31T01:28:23;5.50;;;2.60;;
34204;SDS011;20471;49.680;20.074;2023-07-31T01:30:55;5.10;;;2.70;;
34204;SDS011;20471;49.680;20.074;2023-07-31T01:33:27;4.00;;;3.10;;
34204;SDS011;20471;49.680;20.074;2023-07-31T01:35:55;3.20;;;2.50;;
34204;SDS011;20471;49.680;20.074;2023-07-31T01:38:24;4.10;;;3.30;;
34204;SDS011;20471;49.680;20.074;2023-07-31T01:40:52;4.00;;;2.90;;
34204;SDS011;20471;49.680;20.074;2023-07-31T01:43:20;5.70;;;3.60;;
34204;SDS011;20471;49.680;20.074;2023-07-31T01:45:48;3.50;;;3.10;;
34204;SDS011;20471;49.680;20.074;2023-07-31T01:48:15;6.40;;;3.20;;
34204;SDS011;20471;49.680;20.074;2023-07-31T01:50:43;6.60;;;3.30;;
34204;SDS011;20471;49.680;20.074;2023-07-31T01:53:11;4.70;;;2.70;;
34204;SDS011;20471;49.680;20.074;2023-07-31T01:55:39;6.50;;;2.90;;
34204;SDS011;20471;49.680;20.074;2023-07-31T01:58:07;5.00;;;3.30;;
34204;SDS011;20471;49.680;20.074;2023-07-31T02:00:35;9.30;;;3.10;;
34204;SDS011;20471;49.680;20.074;2023-07-31T02:03:02;4.00;;;2.70;;
34204;SDS011;20471;49.680;20.074;2023-07-31T02:05:31;9.80;;;2.90;;
34204;SDS011;20471;49.680;20.074;2023-07-31T02:07:58;6.80;;;3.30;;
34204;SDS011;20471;49.680;20.074;2023-07-31T02:10:26;5.80;;;3.00;;
34204;SDS011;20471;49.680;20.074;2023-07-31T02:12:54;5.30;;;3.30;;
34204;SDS011;20471;49.680;20.074;2023-07-31T02:15:21;4.50;;;3.60;;
34204;SDS011;20471;49.680;20.074;2023-07-31T02:17:49;5.60;;;3.40;;
34204;SDS011;20471;49.680;20.074;2023-07-31T02:20:17;8.40;;;3.00;;
34204;SDS011;20471;49.680;20.074;2023-07-31T02:22:44;5.40;;;3.10;;
34204;SDS011;20471;49.680;20.074;2023-07-31T02:25:12;10.30;;;3.00;;
34204;SDS011;20471;49.680;20.074;2023-07-31T02:27:40;5.50;;;3.40;;
34204;SDS011;20471;49.680;20.074;2023-07-31T02:30:08;7.10;;;3.00;;
34204;SDS011;20471;49.680;20.074;2023-07-31T02:32:36;6.10;;;3.20;;
34204;SDS011;20471;49.680;20.074;2023-07-31T02:35:03;4.40;;;3.20;;
34204;SDS011;20471;49.680;20.074;2023-07-31T02:37:31;3.90;;;3.00;;
34204;SDS011;20471;49.680;20.074;2023-07-31T02:39:59;5.00;;;3.10;;
34204;SDS011;20471;49.680;20.074;2023-07-31T02:42:27;7.20;;;3.50;;
34204;SDS011;20471;49.680;20.074;2023-07-31T02:44:54;5.10;;;3.70;;
34204;SDS011;20471;49.680;20.074;2023-07-31T02:47:22;5.20;;;3.00;;
34204;SDS011;20471;49.680;20.074;2023-07-31T02:49:50;12.20;;;3.80;;
34204;SDS011;20471;49.680;20.074;2023-07-31T02:52:17;5.50;;;3.20;;
34204;SDS011;20471;49.680;20.074;2023-07-31T02:54:46;5.40;;;3.20;;
34204;SDS011;20471;49.680;20.074;2023-07-31T02:57:13;10.60;;;4.00;;
34204;SDS011;20471;49.680;20.074;2023-07-31T02:59:42;7.30;;;3.70;;
34204;SDS011;20471;49.680;20.074;2023-07-31T03:02:10;5.30;;;3.80;;
34204;SDS011;20471;49.680;20.074;2023-07-31T03:04:38;5.30;;;3.60;;
34204;SDS011;20471;49.680;20.074;2023-07-31T03:07:06;5.80;;;3.70;;
34204;SDS011;20471;49.680;20.074;2023-07-31T03:09:34;5.80;;;4.20;;
34204;SDS011;20471;49.680;20.074;2023-07-31T03:12:01;7.90;;;3.90;;
34204;SDS011;20471;49.680;20.074;2023-07-31T03:14:29;7.30;;;4.10;;
34204;SDS011;20471;49.680;20.074;2023-07-31T03:16:57;8.20;;;4.40;;
34204;SDS011;20471;49.680;20.074;2023-07-31T03:19:24;5.40;;;4.00;;
34204;SDS011;20471;49.680;20.074;2023-07-31T03:21:52;11.40;;;4.10;;
34204;SDS011;20471;49.680;20.074;2023-07-31T03:24:20;7.00;;;4.00;;
34204;SDS011;20471;49.680;20.074;2023-07-31T03:26:48;5.80;;;4.00;;
34204;SDS011;20471;49.680;20.074;2023-07-31T03:29:15;8.80;;;4.20;;
34204;SDS011;20471;49.680;20.074;2023-07-31T03:31:43;9.20;;;4.10;;
34204;SDS011;20471;49.680;20.074;2023-07-31T03:34:10;6.40;;;3.90;;
34204;SDS011;20471;49.680;20.074;2023-07-31T03:36:38;4.30;;;3.80;;
34204;SDS011;20471;49.680;20.074;2023-07-31T03:39:06;5.50;;;4.20;;
34204;SDS011;20471;49.680;20.074;2023-07-31T03:41:34;5.70;;;4.00;;
34204;SDS011;20471;49.680;20.074;2023-07-31T03:44:01;10.00;;;3.90;;
34204;SDS011;20471;49.680;20.074;2023-07-31T03:46:29;7.50;;;4.30;;
34204;SDS011;20471;49.680;20.074;2023-07-31T03:48:57;9.80;;;4.80;;
34204;SDS011;20471;49.680;20.074;2023-07-31T03:51:25;7.10;;;4.70;;
34204;SDS011;20471;49.680;20.074;2023-07-31T03:53:52;7.20;;;4.30;;
34204;SDS011;20471;49.680;20.074;2023-07-31T03:56:20;5.40;;;4.10;;
34204;SDS011;20471;49.680;20.074;2023-07-31T03:58:48;7.10;;;4.20;;
34204;SDS011;20471;49.680;20.074;2023-07-31T04:01:16;5.70;;;4.30;;
34204;SDS011;20471;49.680;20.074;2023-07-31T04:03:45;7.00;;;4.40;;
34204;SDS011;20471;49.680;20.074;2023-07-31T04:06:13;7.50;;;3.80;;
34204;SDS011;20471;49.680;20.074;2023-07-31T04:08:44;6.60;;;4.10;;
34204;SDS011;20471;49.680;20.074;2023-07-31T04:11:12;6.30;;;4.20;;
34204;SDS011;20471;49.680;20.074;2023-07-31T04:13:40;5.40;;;3.40;;
34204;SDS011;20471;49.680;20.074;2023-07-31T04:16:07;3.70;;;3.10;;
34204;SDS011;20471;49.680;20.074;2023-07-31T04:18:35;6.10;;;3.70;;
34204;SDS011;20471;49.680;20.074;2023-07-31T04:21:03;8.20;;;3.60;;
34204;SDS011;20471;49.680;20.074;2023-07-31T04:23:30;5.50;;;3.70;;
34204;SDS011;20471;49.680;20.074;2023-07-31T04:25:58;4.90;;;3.40;;
34204;SDS011;20471;49.680;20.074;2023-07-31T04:28:26;7.40;;;3.60;;
34204;SDS011;20471;49.680;20.074;2023-07-31T04:30:53;6.40;;;5.40;;
34204;SDS011;20471;49.680;20.074;2023-07-31T04:33:21;11.00;;;7.90;;
34204;SDS011;20471;49.680;20.074;2023-07-31T04:35:52;12.00;;;8.30;;
34204;SDS011;20471;49.680;20.074;2023-07-31T04:38:20;10.10;;;8.20;;
34204;SDS011;20471;49.680;20.074;2023-07-31T04:40:48;8.40;;;7.00;;
34204;SDS011;20471;49.680;20.074;2023-07-31T04:43:16;7.20;;;6.50;;
34204;SDS011;20471;49.680;20.074;2023-07-31T04:45:47;9.30;;;6.00;;
34204;SDS011;20471;49.680;20.074;2023-07-31T04:48:16;11.30;;;5.60;;
34204;SDS011;20471;49.680;20.074;2023-07-31T04:50:43;8.80;;;5.90;;
34204;SDS011;20471;49.680;20.074;2023-07-31T04:53:11;6.20;;;5.00;;
34204;SDS011;20471;49.680;20.074;2023-07-31T04:55:39;5.40;;;4.50;;
34204;SDS011;20471;49.680;20.074;2023-07-31T04:58:06;6.40;;;3.90;;
34204;SDS011;20471;49.680;20.074;2023-07-31T05:00:34;5.80;;;4.40;;
34204;SDS011;20471;49.680;20.074;2023-07-31T05:03:02;4.70;;;4.00;;
34204;SDS011;20471;49.680;20.074;2023-07-31T05:05:30;5.60;;;4.00;;
34204;SDS011;20471;49.680;20.074;2023-07-31T05:07:57;4.60;;;4.00;;
34204;SDS011;20471;49.680;20.074;2023-07-31T05:10:25;6.00;;;4.20;;
34204;SDS011;20471;49.680;20.074;2023-07-31T05:12:53;5.00;;;3.40;;
34204;SDS011;20471;49.680;20.074;2023-07-31T05:15:20;4.30;;;3.30;;
34204;SDS011;20471;49.680;20.074;2023-07-31T05:17:48;5.40;;;3.30;;
34204;SDS011;20471;49.680;20.074;2023-07-31T05:20:16;5.90;;;3.40;;
34204;SDS011;20471;49.680;20.074;2023-07-31T05:22:44;5.70;;;3.70;;
34204;SDS011;20471;49.680;20.074;2023-07-31T05:25:11;4.40;;;3.40;;
34204;SDS011;20471;49.680;20.074;2023-07-31T05:27:39;5.20;;;3.40;;
34204;SDS011;20471;49.680;20.074;2023-07-31T05:30:07;5.80;;;3.50;;
34204;SDS011;20471;49.680;20.074;2023-07-31T05:32:35;3.80;;;3.20;;
34204;SDS011;20471;49.680;20.074;2023-07-31T05:35:03;4.20;;;3.60;;
34204;SDS011;20471;49.680;20.074;2023-07-31T05:37:31;4.30;;;3.70;;
34204;SDS011;20471;49.680;20.074;2023-07-31T05:39:59;5.40;;;3.60;;
34204;SDS011;20471;49.680;20.074;2023-07-31T05:42:26;4.30;;;3.00;;
34204;SDS011;20471;49.680;20.074;2023-07-31T05:44:54;5.40;;;3.20;;
34204;SDS011;20471;49.680;20.074;2023-07-31T05:47:21;2.70;;;2.50;;
34204;SDS011;20471;49.680;20.074;2023-07-31T05:49:49;3.50;;;3.20;;
34204;SDS011;20471;49.680;20.074;2023-07-31T05:52:18;4.60;;;3.40;;
34204;SDS011;20471;49.680;20.074;2023-07-31T05:54:47;4.50;;;2.90;;
34204;SDS011;20471;49.680;20.074;2023-07-31T05:57:14;3.40;;;2.60;;
34204;SDS011;20471;49.680;20.074;2023-07-31T05:59:42;3.20;;;2.30;;
34204;SDS011;20471;49.680;20.074;2023-07-31T06:02:10;4.50;;;2.60;;
34204;SDS011;20471;49.680;20.074;2023-07-31T06:04:37;5.10;;;2.70;;
34204;SDS011;20471;49.680;20.074;2023-07-31T06:07:05;4.20;;;2.60;;
34204;SDS011;20471;49.680;20.074;2023-07-31T06:09:33;3.50;;;2.60;;
34204;SDS011;20471;49.680;20.074;2023-07-31T06:12:00;4.40;;;3.30;;
34204;SDS011;20471;49.680;20.074;2023-07-31T06:14:28;4.40;;;3.30;;
34204;SDS011;20471;49.680;20.074;2023-07-31T06:16:56;5.00;;;2.70;;
34204;SDS011;20471;49.680;20.074;2023-07-31T06:19:23;4.30;;;3.50;;
34204;SDS011;20471;49.680;20.074;2023-07-31T06:21:51;4.10;;;3.10;;
34204;SDS011;20471;49.680;20.074;2023-07-31T06:24:18;3.80;;;3.00;;
34204;SDS011;20471;49.680;20.074;2023-07-31T06:26:47;3.70;;;3.10;;
34204;SDS011;20471;49.680;20.074;2023-07-31T06:29:14;3.90;;;3.00;;
34204;SDS011;20471;49.680;20.074;2023-07-31T06:31:42;7.20;;;3.10;;
34204;SDS011;20471;49.680;20.074;2023-07-31T06:34:10;6.40;;;3.20;;
34204;SDS011;20471;49.680;20.074;2023-07-31T06:36:37;5.00;;;2.70;;
34204;SDS011;20471;49.680;20.074;2023-07-31T06:39:05;4.20;;;3.10;;
34204;SDS011;20471;49.680;20.074;2023-07-31T06:41:34;3.30;;;2.90;;
34204;SDS011;20471;49.680;20.074;2023-07-31T06:44:01;5.40;;;3.00;;
34204;SDS011;20471;49.680;20.074;2023-07-31T06:46:29;5.10;;;3.20;;
34204;SDS011;20471;49.680;20.074;2023-07-31T06:48:57;3.30;;;3.00;;
34204;SDS011;20471;49.680;20.074;2023-07-31T06:51:25;4.30;;;2.70;;
34204;SDS011;20471;49.680;20.074;2023-07-31T06:53:52;3.00;;;2.70;;
34204;SDS011;20471;49.680;20.074;2023-07-31T06:56:20;3.60;;;3.30;;
34204;SDS011;20471;49.680;20.074;2023-07-31T06:58:48;4.90;;;3.20;;
34204;SDS011;20471;49.680;20.074;2023-07-31T07:01:16;4.00;;;2.70;;
34204;SDS011;20471;49.680;20.074;2023-07-31T07:03:44;3.00;;;2.50;;
34204;SDS011;20471;49.680;20.074;2023-07-31T07:06:12;3.20;;;2.80;;
34204;SDS011;20471;49.680;20.074;2023-07-31T07:08:40;3.30;;;2.60;;
34204;SDS011;20471;49.680;20.074;2023-07-31T07:11:07;3.20;;;2.90;;
34204;SDS011;20471;49.680;20.074;2023-07-31T07:13:35;3.90;;;2.60;;
34204;SDS011;20471;49.680;20.074;2023-07-31T07:16:03;3.60;;;2.70;;
34204;SDS011;20471;49.680;20.074;2023-07-31T07:18:31;4.60;;;2.70;;
34204;SDS011;20471;49.680;20.074;2023-07-31T07:20:59;5.00;;;2.80;;
34204;SDS011;20471;49.680;20.074;2023-07-31T07:23:28;3.80;;;2.90;;
34204;SDS011;20471;49.680;20.074;2023-07-31T07:25:56;3.00;;;2.70;;
34204;SDS011;20471;49.680;20.074;2023-07-31T07:28:24;4.50;;;2.70;;
34204;SDS011;20471;49.680;20.074;2023-07-31T07:30:52;4.10;;;3.00;;
34204;SDS011;20471;49.680;20.074;2023-07-31T07:33:20;4.10;;;2.70;;
34204;SDS011;20471;49.680;20.074;2023-07-31T07:35:48;2.70;;;2.50;;
34204;SDS011;20471;49.680;20.074;2023-07-31T07:38:16;5.30;;;3.10;;
34204;SDS011;20471;49.680;20.074;2023-07-31T07:40:45;3.90;;;2.50;;
34204;SDS011;20471;49.680;20.074;2023-07-31T07:43:16;4.30;;;2.40;;
34204;SDS011;20471;49.680;20.074;2023-07-31T07:45:44;3.60;;;2.70;;
34204;SDS011;20471;49.680;20.074;2023-07-31T07:48:12;3.50;;;3.10;;
34204;SDS011;20471;49.680;20.074;2023-07-31T07:50:40;7.10;;;2.60;;
34204;SDS011;20471;49.680;20.074;2023-07-31T07:53:10;5.20;;;3.30;;
34204;SDS011;20471;49.680;20.074;2023-07-31T07:55:37;3.80;;;2.90;;
34204;SDS011;20471;49.680;20.074;2023-07-31T07:58:05;4.80;;;2.70;;
34204;SDS011;20471;49.680;20.074;2023-07-31T08:00:33;5.10;;;3.30;;
34204;SDS011;20471;49.680;20.074;2023-07-31T08:03:01;5.00;;;3.60;;
34204;SDS011;20471;49.680;20.074;2023-07-31T08:05:29;6.70;;;3.90;;
34204;SDS011;20471;49.680;20.074;2023-07-31T08:08:00;6.80;;;4.20;;
34204;SDS011;20471;49.680;20.074;2023-07-31T08:10:28;4.20;;;3.70;;
34204;SDS011;20471;49.680;20.074;2023-07-31T08:12:56;4.30;;;3.70;;
34204;SDS011;20471;49.680;20.074;2023-07-31T08:15:23;5.30;;;4.10;;
34204;SDS011;20471;49.680;20.074;2023-07-31T08:17:51;5.50;;;3.90;;
34204;SDS011;20471;49.680;20.074;2023-07-31T08:20:19;5.60;;;4.10;;
34204;SDS011;20471;49.680;20.074;2023-07-31T08:22:47;5.00;;;3.80;;
34204;SDS011;20471;49.680;20.074;2023-07-31T08:25:15;8.50;;;4.40;;
34204;SDS011;20471;49.680;20.074;2023-07-31T08:27:43;5.80;;;4.00;;
34204;SDS011;20471;49.680;20.074;2023-07-31T08:30:11;9.60;;;3.40;;
34204;SDS011;20471;49.680;20.074;2023-07-31T08:32:39;4.60;;;3.20;;
34204;SDS011;20471;49.680;20.074;2023-07-31T08:35:07;5.20;;;3.30;;
34204;SDS011;20471;49.680;20.074;2023-07-31T08:37:35;3.60;;;2.90;;
34204;SDS011;20471;49.680;20.074;2023-07-31T08:40:03;7.80;;;3.10;;
34204;SDS011;20471;49.680;20.074;2023-07-31T08:42:32;5.00;;;2.90;;
34204;SDS011;20471;49.680;20.074;2023-07-31T08:44:59;6.90;;;4.30;;
34204;SDS011;20471;49.680;20.074;2023-07-31T08:47:30;5.40;;;3.70;;
34204;SDS011;20471;49.680;20.074;2023-07-31T08:49:58;6.40;;;3.50;;
34204;SDS011;20471;49.680;20.074;2023-07-31T08:52:27;6.00;;;4.10;;
34204;SDS011;20471;49.680;20.074;2023-07-31T08:54:55;5.30;;;3.40;;
34204;SDS011;20471;49.680;20.074;2023-07-31T08:57:23;5.50;;;3.30;;
34204;SDS011;20471;49.680;20.074;2023-07-31T08:59:51;6.10;;;4.10;;
34204;SDS011;20471;49.680;20.074;2023-07-31T09:02:20;5.70;;;3.50;;
34204;SDS011;20471;49.680;20.074;2023-07-31T09:04:49;5.20;;;3.80;;
34204;SDS011;20471;49.680;20.074;2023-07-31T09:07:17;7.20;;;3.80;;
34204;SDS011;20471;49.680;20.074;2023-07-31T09:09:45;6.80;;;3.90;;
34204;SDS011;20471;49.680;20.074;2023-07-31T09:12:13;11.40;;;3.60;;
34204;SDS011;20471;49.680;20.074;2023-07-31T09:14:41;4.90;;;3.20;;
34204;SDS011;20471;49.680;20.074;2023-07-31T09:17:11;4.30;;;3.30;;
34204;SDS011;20471;49.680;20.074;2023-07-31T09:19:39;5.00;;;3.80;;
34204;SDS011;20471;49.680;20.074;2023-07-31T09:22:06;16.10;;;4.40;;
34204;SDS011;20471;49.680;20.074;2023-07-31T10:29:24;5.20;;;2.40;;
34204;SDS011;20471;49.680;20.074;2023-07-31T10:31:51;5.80;;;2.60;;
34204;SDS011;20471;49.680;20.074;2023-07-31T10:34:18;4.30;;;3.00;;
34204;SDS011;20471;49.680;20.074;2023-07-31T10:36:44;5.20;;;2.20;;
34204;SDS011;20471;49.680;20.074;2023-07-31T10:42:09;5.70;;;2.80;;
34204;SDS011;20471;49.680;20.074;2023-07-31T10:44:43;3.10;;;2.40;;
34204;SDS011;20471;49.680;20.074;2023-07-31T10:47:14;3.20;;;2.50;;
34204;SDS011;20471;49.680;20.074;2023-07-31T10:49:44;5.40;;;3.00;;
34204;SDS011;20471;49.680;20.074;2023-07-31T10:52:12;4.00;;;2.50;;
34204;SDS011;20471;49.680;20.074;2023-07-31T10:54:39;5.30;;;2.60;;
34204;SDS011;20471;49.680;20.074;2023-07-31T10:57:18;3.70;;;2.70;;
34204;SDS011;20471;49.680;20.074;2023-07-31T10:59:46;4.30;;;2.50;;
34204;SDS011;20471;49.680;20.074;2023-07-31T11:02:48;3.90;;;2.60;;
34204;SDS011;20471;49.680;20.074;2023-07-31T11:05:07;5.50;;;2.60;;
34204;SDS011;20471;49.680;20.074;2023-07-31T11:07:47;3.90;;;2.70;;
34204;SDS011;20471;49.680;20.074;2023-07-31T11:10:17;6.40;;;2.90;;
34204;SDS011;20471;49.680;20.074;2023-07-31T11:12:47;5.60;;;2.50;;
34204;SDS011;20471;49.680;20.074;2023-07-31T11:15:13;5.60;;;2.70;;
34204;SDS011;20471;49.680;20.074;2023-07-31T11:17:40;5.00;;;2.60;;
34204;SDS011;20471;49.680;20.074;2023-07-31T11:20:07;5.00;;;2.90;;
34204;SDS011;20471;49.680;20.074;2023-07-31T11:22:34;2.90;;;2.50;;
34204;SDS011;20471;49.680;20.074;2023-07-31T11:25:02;2.60;;;2.20;;
34204;SDS011;20471;49.680;20.074;2023-07-31T11:27:30;4.90;;;2.60;;
34204;SDS011;20471;49.680;20.074;2023-07-31T11:30:00;3.10;;;2.80;;
34204;SDS011;20471;49.680;20.074;2023-07-31T11:32:28;4.00;;;2.90;;
34204;SDS011;20471;49.680;20.074;2023-07-31T11:34:54;5.80;;;2.90;;
34204;SDS011;20471;49.680;20.074;2023-07-31T11:37:21;4.60;;;2.70;;
34204;SDS011;20471;49.680;20.074;2023-07-31T11:40:00;4.70;;;2.60;;
34204;SDS011;20471;49.680;20.074;2023-07-31T11:42:27;3.90;;;2.50;;
34204;SDS011;20471;49.680;20.074;2023-07-31T11:44:53;5.00;;;2.80;;
34204;SDS011;20471;49.680;20.074;2023-07-31T11:47:19;5.50;;;3.10;;
34204;SDS011;20471;49.680;20.074;2023-07-31T11:49:46;4.00;;;2.50;;
34204;SDS011;20471;49.680;20.074;2023-07-31T11:52:13;2.70;;;2.40;;
34204;SDS011;20471;49.680;20.074;2023-07-31T11:54:41;3.70;;;2.70;;
34204;SDS011;20471;49.680;20.074;2023-07-31T11:57:07;6.30;;;2.50;;
34204;SDS011;20471;49.680;20.074;2023-07-31T11:59:34;6.10;;;2.90;;
34204;SDS011;20471;49.680;20.074;2023-07-31T12:02:00;3.70;;;2.60;;
34204;SDS011;20471;49.680;20.074;2023-07-31T12:04:28;3.40;;;2.60;;
34204;SDS011;20471;49.680;20.074;2023-07-31T12:06:54;3.30;;;2.40;;
34204;SDS011;20471;49.680;20.074;2023-07-31T12:09:20;3.50;;;2.60;;
34204;SDS011;20471;49.680;20.074;2023-07-31T12:11:47;2.90;;;2.60;;
34204;SDS011;20471;49.680;20.074;2023-07-31T12:14:23;2.60;;;2.30;;
34204;SDS011;20471;49.680;20.074;2023-07-31T12:16:58;5.70;;;2.50;;
34204;SDS011;20471;49.680;20.074;2023-07-31T12:19:26;2.90;;;2.40;;
34204;SDS011;20471;49.680;20.074;2023-07-31T12:21:55;4.90;;;2.60;;
34204;SDS011;20471;49.680;20.074;2023-07-31T12:24:22;4.70;;;2.60;;
34204;SDS011;20471;49.680;20.074;2023-07-31T12:26:49;5.00;;;2.90;;
34204;SDS011;20471;49.680;20.074;2023-07-31T12:29:17;4.40;;;2.20;;
34204;SDS011;20471;49.680;20.074;2023-07-31T12:31:43;3.00;;;2.20;;
34204;SDS011;20471;49.680;20.074;2023-07-31T12:34:17;2.50;;;2.00;;
34204;SDS011;20471;49.680;20.074;2023-07-31T12:36:46;3.60;;;2.20;;
34204;SDS011;20471;49.680;20.074;2023-07-31T12:39:14;2.30;;;2.10;;
34204;SDS011;20471;49.680;20.074;2023-07-31T12:41:41;4.20;;;2.30;;
34204;SDS011;20471;49.680;20.074;2023-07-31T12:44:07;4.00;;;2.40;;
34204;SDS011;20471;49.680;20.074;2023-07-31T12:46:35;4.50;;;2.30;;
34204;SDS011;20471;49.680;20.074;2023-07-31T12:49:02;2.10;;;2.00;;
34204;SDS011;20471;49.680;20.074;2023-07-31T12:51:28;3.30;;;2.20;;
34204;SDS011;20471;49.680;20.074;2023-07-31T12:53:55;2.90;;;2.00;;
34204;SDS011;20471;49.680;20.074;2023-07-31T12:56:21;4.90;;;2.00;;
34204;SDS011;20471;49.680;20.074;2023-07-31T12:58:48;3.80;;;2.10;;
34204;SDS011;20471;49.680;20.074;2023-07-31T13:01:14;5.10;;;2.10;;
34204;SDS011;20471;49.680;20.074;2023-07-31T13:03:40;5.10;;;2.20;;
34204;SDS011;20471;49.680;20.074;2023-07-31T13:06:07;6.40;;;2.10;;
34204;SDS011;20471;49.680;20.074;2023-07-31T13:08:33;2.50;;;2.30;;
34204;SDS011;20471;49.680;20.074;2023-07-31T13:11:00;3.10;;;2.00;;
34204;SDS011;20471;49.680;20.074;2023-07-31T13:13:26;4.00;;;1.90;;
34204;SDS011;20471;49.680;20.074;2023-07-31T13:15:52;4.70;;;1.70;;
34204;SDS011;20471;49.680;20.074;2023-07-31T13:18:19;4.20;;;2.30;;
34204;SDS011;20471;49.680;20.074;2023-07-31T13:20:45;3.40;;;2.00;;
34204;SDS011;20471;49.680;20.074;2023-07-31T13:23:12;3.50;;;2.40;;
34204;SDS011;20471;49.680;20.074;2023-07-31T13:25:38;3.20;;;2.10;;
34204;SDS011;20471;49.680;20.074;2023-07-31T13:28:05;2.60;;;2.00;;
34204;SDS011;20471;49.680;20.074;2023-07-31T13:30:31;4.00;;;2.10;;
34204;SDS011;20471;49.680;20.074;2023-07-31T13:32:59;4.00;;;2.30;;
34204;SDS011;20471;49.680;20.074;2023-07-31T13:35:25;3.10;;;2.20;;
34204;SDS011;20471;49.680;20.074;2023-07-31T13:37:52;4.50;;;2.30;;
34204;SDS011;20471;49.680;20.074;2023-07-31T13:40:18;5.60;;;2.70;;
34204;SDS011;20471;49.680;20.074;2023-07-31T13:42:44;3.30;;;2.40;;
34204;SDS011;20471;49.680;20.074;2023-07-31T13:45:12;2.80;;;2.50;;
34204;SDS011;20471;49.680;20.074;2023-07-31T13:47:39;4.10;;;2.20;;
34204;SDS011;20471;49.680;20.074;2023-07-31T13:50:05;2.20;;;2.00;;
34204;SDS011;20471;49.680;20.074;2023-07-31T13:52:32;3.40;;;2.00;;
34204;SDS011;20471;49.680;20.074;2023-07-31T13:54:58;5.00;;;2.80;;
34204;SDS011;20471;49.680;20.074;2023-07-31T13:57:25;4.00;;;2.30;;
34204;SDS011;20471;49.680;20.074;2023-07-31T13:59:51;3.20;;;2.30;;
34204;SDS011;20471;49.680;20.074;2023-07-31T14:02:17;2.90;;;2.40;;
34204;SDS011;20471;49.680;20.074;2023-07-31T14:04:44;3.20;;;2.10;;
34204;SDS011;20471;49.680;20.074;2023-07-31T14:07:10;3.80;;;2.10;;
34204;SDS011;20471;49.680;20.074;2023-07-31T14:09:37;2.50;;;1.80;;
34204;SDS011;20471;49.680;20.074;2023-07-31T14:12:03;4.10;;;2.10;;
34204;SDS011;20471;49.680;20.074;2023-07-31T14:14:30;4.80;;;3.10;;
34204;SDS011;20471;49.680;20.074;2023-07-31T14:16:59;4.80;;;4.20;;
34204;SDS011;20471;49.680;20.074;2023-07-31T14:19:26;12.60;;;8.80;;
34204;SDS011;20471;49.680;20.074;2023-07-31T14:21:52;11.50;;;9.00;;
34204;SDS011;20471;49.680;20.074;2023-07-31T14:24:18;16.40;;;10.80;;
34204;SDS011;20471;49.680;20.074;2023-07-31T14:26:45;7.80;;;5.70;;
34204;SDS011;20471;49.680;20.074;2023-07-31T14:29:11;7.80;;;5.60;;
34204;SDS011;20471;49.680;20.074;2023-07-31T14:31:37;9.40;;;6.30;;
34204;SDS011;20471;49.680;20.074;2023-07-31T14:34:04;4.90;;;3.30;;
34204;SDS011;20471;49.680;20.074;2023-07-31T14:36:30;3.60;;;2.50;;
34204;SDS011;20471;49.680;20.074;2023-07-31T14:38:57;4.90;;;2.90;;
34204;SDS011;20471;49.680;20.074;2023-07-31T14:41:23;4.80;;;2.80;;
34204;SDS011;20471;49.680;20.074;2023-07-31T14:43:50;6.40;;;2.90;;
34204;SDS011;20471;49.680;20.074;2023-07-31T14:46:16;4.90;;;3.30;;
34204;SDS011;20471;49.680;20.074;2023-07-31T15:05:13;3.80;;;2.00;;
34204;SDS011;20471;49.680;20.074;2023-07-31T15:07:41;2.50;;;2.10;;
34204;SDS011;20471;49.680;20.074;2023-07-31T15:10:08;2.90;;;2.00;;
34204;SDS011;20471;49.680;20.074;2023-07-31T15:12:36;4.30;;;2.20;;
34204;SDS011;20471;49.680;20.074;2023-07-31T15:15:05;4.00;;;2.40;;
34204;SDS011;20471;49.680;20.074;2023-07-31T15:17:33;4.40;;;1.90;;
34204;SDS011;20471;49.680;20.074;2023-07-31T15:20:01;2.60;;;2.00;;
34204;SDS011;20471;49.680;20.074;2023-07-31T15:22:29;3.00;;;1.70;;
34204;SDS011;20471;49.680;20.074;2023-07-31T15:24:57;2.90;;;2.30;;
34204;SDS011;20471;49.680;20.074;2023-07-31T15:27:25;3.30;;;2.10;;
34204;SDS011;20471;49.680;20.074;2023-07-31T15:29:53;3.40;;;2.10;;
34204;SDS011;20471;49.680;20.074;2023-07-31T15:32:21;3.40;;;2.00;;
34204;SDS011;20471;49.680;20.074;2023-07-31T15:34:49;2.90;;;2.10;;
34204;SDS011;20471;49.680;20.074;2023-07-31T15:37:17;4.50;;;2.40;;
34204;SDS011;20471;49.680;20.074;2023-07-31T15:39:45;2.40;;;2.10;;
34204;SDS011;20471;49.680;20.074;2023-07-31T15:42:13;3.00;;;2.10;;
34204;SDS011;20471;49.680;20.074;2023-07-31T15:44:41;7.50;;;2.50;;
34204;SDS011;20471;49.680;20.074;2023-07-31T15:47:08;5.40;;;2.40;;
34204;SDS011;20471;49.680;20.074;2023-07-31T15:49:36;2.70;;;1.90;;
34204;SDS011;20471;49.680;20.074;2023-07-31T15:52:04;5.30;;;2.30;;
34204;SDS011;20471;49.680;20.074;2023-07-31T15:54:32;5.70;;;2.70;;
34204;SDS011;20471;49.680;20.074;2023-07-31T15:57:00;4.60;;;2.60;;
34204;SDS011;20471;49.680;20.074;2023-07-31T15:59:28;5.10;;;2.60;;
34204;SDS011;20471;49.680;20.074;2023-07-31T16:01:55;9.70;;;3.00;;
34204;SDS011;20471;49.680;20.074;2023-07-31T16:04:23;4.90;;;2.70;;
34204;SDS011;20471;49.680;20.074;2023-07-31T16:06:51;5.40;;;2.80;;
34204;SDS011;20471;49.680;20.074;2023-07-31T16:09:18;6.70;;;2.40;;